Fairfield, IL (62837)

6:17 AM CDT on September 01, 2015 (GMT -0500)
Uptown | | Change Station
CLOSE
Current Station
Personal Weather Station
Location: Fairfield, IL
Elevation: 446 ft
Nearby Weather Stations

Elev 446 ft 38.38 °N, 88.36 °W | Updated 23 seconds ago

Overcast
Overcast
68.3 °F
Feels Like 68.3 °F
N
0.0
Wind Variable Wind from ESE

Today
High -- | Low -- °F
--% Chance of Precip.
Yesterday
High -- | Low -- °F
Precip. -- in
6:22 AM 7:23 PM
Waning Gibbous, 89% visible
Pressure 30.11 in
Visibility 5.0 miles
Clouds Overcast 6000 ft
Dew Point 66 °F
Humidity 93%
Rainfall 0.00 in
Snow Depth Not available.
UV 0 out of 12
Pollen 10.40 out of 12
Air Quality Not available.
Flu Activity Not available.
METAR KFWC 011055Z AUTO 00000KT 5SM VCTS BR OVC060 19/19 A3011 RMK AO1 LTG DSNT N AND NE T01910189
Pressure 30.11 in
Visibility 5.0 miles
Clouds Overcast 6000 ft
Dew Point 66 °F
Humidity 93%
Rainfall 0.00 in
Snow Depth Not available.
UV 0 out of 12
Pollen 10.40 out of 12
Air Quality Not available.
Flu Activity Not available.
METAR KFWC 011055Z AUTO 00000KT 5SM VCTS BR OVC060 19/19 A3011 RMK AO1 LTG DSNT N AND NE T01910189

10-Day Weather Forecast

×

Almanac

Astronomy

Sep. 01, 2015 Rise Set
Actual Time
Civil Twilight
Nautical Twilight
Astronomical Twilight
Moon
Length of Visible Light
Length of Day
Tomorrow will be .
, % of the Moon is Illuminated

Today's Extremes

State Highs State Lows

Community

WunderPhotos

Upload Photos

1,851,501 photos uploaded!

WunderBlogs® & News

Nearby

Air Quality

  Air Quality AQ Index Pollutant
Not available.

Snow Depth

Station Depth Elevation

Earthquake Activity

City Distance Mag. Time & Date
Minimum magnitude displayed is 2.5.

Coastal Water Temperatures

Place Temperature

Stations

Nearby Weather Stations

Station Location Temp. Windchill Dew Point Humidity Wind Precip. Elev Updated Type